Time;durP1;ratioP1;P1;durP2;ratioP2;P2;SDS_P1;SDS_P2;PMS_P1;PMS_P2;Temp;Humidity;BMP_temperature;BMP_pressure;BME280_temperature;BME280_humidity;BME280_pressure;Samples;Min_cycle;Max_cycle;Signal;HPM_P1;HPM_P2
2024/04/11 00:02:09;;;;;;;16.52;3.83;;;4.20;99.90;;;;;;5550590;25;20025;-85
2024/04/11 00:05:10;;;;;;;13.32;3.65;;;4.20;1.00;;;;;;5526396;25;20008;-84
2024/04/11 00:07:59;;;;;;;14.88;3.80;;;4.10;1.00;;;;;;5525539;25;20011;-84
2024/04/11 00:10:47;;;;;;;17.95;3.88;;;4.00;1.00;;;;;;5550064;25;20015;-83
2024/04/11 00:13:34;;;;;;;12.55;3.90;;;3.90;1.00;;;;;;5552526;25;20005;-85
2024/04/11 00:16:23;;;;;;;9.35;3.50;;;3.90;1.00;;;;;;5524668;25;20005;-84
2024/04/11 00:19:10;;;;;;;6.88;3.92;;;3.90;1.00;;;;;;5551747;25;20072;-85
2024/04/11 00:21:58;;;;;;;9.65;3.75;;;3.80;1.00;;;;;;5523594;25;20572;-84
2024/04/11 00:24:46;;;;;;;10.55;3.97;;;3.80;1.00;;;;;;5533695;25;20005;-85
2024/04/11 00:27:34;;;;;;;11.10;4.13;;;3.70;1.00;;;;;;5551214;25;20787;-86
2024/04/11 00:30:21;;;;;;;15.13;4.38;;;3.80;1.00;;;;;;5560999;25;20009;-84
2024/04/11 00:33:12;;;;;;;14.57;4.43;;;3.80;1.00;;;;;;5566637;25;20005;-84
2024/04/11 00:36:02;;;;;;;10.00;4.50;;;3.80;1.00;;;;;;5551629;25;20004;-85
2024/04/11 00:38:51;;;;;;;19.90;5.07;;;3.70;1.00;;;;;;5554309;25;20529;-84
2024/04/11 00:41:41;;;;;;;9.07;3.85;;;3.70;1.00;;;;;;5526779;25;20020;-84
2024/04/11 00:44:32;;;;;;;14.05;4.38;;;3.60;1.00;;;;;;5551148;25;20004;-84
2024/04/11 00:47:21;;;;;;;9.48;4.57;;;3.50;1.00;;;;;;5533094;25;20001;-85
2024/04/11 00:50:10;;;;;;;13.07;4.50;;;3.40;1.00;;;;;;5522421;25;20004;-83
2024/04/11 00:52:58;;;;;;;12.20;4.28;;;3.20;1.00;;;;;;5552593;25;20382;-81
2024/04/11 00:55:56;;;;;;;8.65;4.50;;;3.20;1.00;;;;;;5527476;25;20005;-84
2024/04/11 00:58:44;;;;;;;11.38;4.75;;;3.10;34.30;;;;;;5551119;25;20052;-87
2024/04/11 01:01:32;;;;;;;11.20;5.20;;;3.10;91.90;;;;;;5550365;25;20004;-86
2024/04/11 01:04:19;;;;;;;10.43;5.13;;;3.00;99.90;;;;;;5550688;25;20012;-85
2024/04/11 01:07:08;;;;;;;9.13;5.00;;;3.00;99.90;;;;;;5550156;25;20064;-84
2024/04/11 01:09:57;;;;;;;12.38;4.93;;;2.90;99.90;;;;;;5552124;25;20016;-81
2024/04/11 01:12:49;;;;;;;15.25;4.97;;;3.00;99.90;;;;;;5553791;25;20005;-87
2024/04/11 01:15:43;;;;;;;9.30;4.20;;;3.00;99.90;;;;;;5534922;25;20017;-78
2024/04/11 01:18:31;;;;;;;16.15;4.57;;;3.10;99.90;;;;;;5566673;25;20000;-84
2024/04/11 01:21:21;;;;;;;12.43;4.53;;;3.00;99.90;;;;;;5551891;25;20005;-80
2024/04/11 01:24:08;;;;;;;11.25;4.30;;;2.90;99.90;;;;;;5579294;25;20020;-83
2024/04/11 01:26:56;;;;;;;14.85;5.13;;;2.90;99.90;;;;;;5582200;25;20001;-82
2024/04/11 01:29:44;;;;;;;17.50;4.60;;;2.90;99.90;;;;;;5569222;25;19997;-81
2024/04/11 01:32:32;;;;;;;10.15;4.30;;;3.00;99.90;;;;;;5567062;25;20040;-85
2024/04/11 01:35:24;;;;;;;12.55;4.43;;;3.00;99.90;;;;;;5544809;25;20016;-81
2024/04/11 01:38:12;;;;;;;14.13;5.05;;;3.00;99.90;;;;;;5557847;25;20016;-85
2024/04/11 01:40:59;;;;;;;10.38;4.38;;;2.90;99.90;;;;;;5548307;25;20001;-82
2024/04/11 01:43:52;;;;;;;13.85;4.43;;;2.80;99.90;;;;;;5549917;25;20461;-86
2024/04/11 01:46:39;;;;;;;14.60;5.22;;;2.80;99.90;;;;;;5552004;25;20013;-84
2024/04/11 01:49:31;;;;;;;14.80;4.68;;;2.70;1.00;;;;;;5549089;25;20488;-84
2024/04/11 01:52:19;;;;;;;9.80;4.13;;;2.70;1.00;;;;;;5549964;25;21088;-81
2024/04/11 01:55:08;;;;;;;15.15;5.05;;;2.80;1.00;;;;;;5549791;25;20016;-83
2024/04/11 01:57:57;;;;;;;10.20;4.43;;;2.90;1.00;;;;;;5549695;25;20015;-83
2024/04/11 02:00:44;;;;;;;14.18;4.25;;;2.90;1.00;;;;;;5548829;25;20005;-84
2024/04/11 02:03:38;;;;;;;8.55;4.07;;;3.00;1.00;;;;;;5562538;25;20525;-86
2024/04/11 02:06:26;;;;;;;7.50;3.72;;;3.00;1.00;;;;;;5535545;25;20012;-84
2024/04/11 02:09:21;;;;;;;10.68;4.25;;;2.90;1.00;;;;;;5541232;25;20453;-77
2024/04/11 02:12:17;;;;;;;11.35;3.92;;;2.80;1.00;;;;;;5563898;25;20005;-85
2024/04/11 02:15:10;;;;;;;9.02;4.10;;;2.90;1.00;;;;;;5539011;25;20430;-84
2024/04/11 02:18:01;;;;;;;13.02;4.28;;;2.80;1.00;;;;;;5521040;25;20012;-83
2024/04/11 02:20:53;;;;;;;13.77;4.53;;;2.80;1.00;;;;;;5551667;25;20447;-84
2024/04/11 02:23:41;;;;;;;15.73;4.20;;;2.70;1.00;;;;;;5560859;25;20413;-86
2024/04/11 02:26:30;;;;;;;9.60;3.85;;;2.70;1.00;;;;;;5551164;25;20479;-83
2024/04/11 02:29:19;;;;;;;7.55;4.03;;;2.50;1.00;;;;;;5498931;25;20014;-84
2024/04/11 02:32:06;;;;;;;12.77;5.38;;;2.50;1.00;;;;;;5549785;25;20017;-84
2024/04/11 02:34:56;;;;;;;15.82;4.47;;;2.40;1.00;;;;;;5550143;25;20005;-84
2024/04/11 02:37:45;;;;;;;7.93;4.43;;;2.40;1.00;;;;;;5551650;25;20433;-85
2024/04/11 02:40:37;;;;;;;16.52;4.43;;;2.30;1.00;;;;;;5548838;25;20037;-85
2024/04/11 02:43:26;;;;;;;7.82;4.00;;;2.40;1.00;;;;;;5547994;25;20012;-83
2024/04/11 02:46:16;;;;;;;11.32;4.32;;;2.40;1.00;;;;;;5551799;25;20046;-86
2024/04/11 02:49:05;;;;;;;13.02;4.55;;;2.30;1.00;;;;;;5510982;25;20013;-78
2024/04/11 02:51:53;;;;;;;12.77;4.30;;;2.40;9.30;;;;;;5550137;25;20028;-83
2024/04/11 02:54:42;;;;;;;13.77;5.00;;;2.40;25.50;;;;;;5549996;25;20004;-78
2024/04/11 02:57:31;;;;;;;10.80;4.75;;;2.30;45.10;;;;;;5563060;25;20013;-82
2024/04/11 03:00:19;;;;;;;10.05;4.18;;;2.30;99.00;;;;;;5528181;25;20005;-83
2024/04/11 03:03:09;;;;;;;15.13;4.57;;;2.40;99.90;;;;;;5548547;25;20005;-84
2024/04/11 03:06:07;;;;;;;10.07;4.85;;;2.50;99.90;;;;;;5524418;25;20100;-85
2024/04/11 03:08:58;;;;;;;14.35;5.68;;;2.50;99.90;;;;;;5546021;25;20043;-83
2024/04/11 03:11:46;;;;;;;16.13;5.00;;;2.50;99.90;;;;;;5522718;25;19997;-85
2024/04/11 03:14:36;;;;;;;10.20;5.47;;;2.40;99.90;;;;;;5550020;25;20013;-84
2024/04/11 03:17:23;;;;;;;12.45;4.82;;;2.20;99.90;;;;;;5549033;25;20056;-83
2024/04/11 03:20:16;;;;;;;6.55;4.25;;;2.10;99.90;;;;;;5550732;25;20458;-85
2024/04/11 03:23:11;;;;;;;10.27;4.47;;;2.10;99.90;;;;;;5554270;25;20037;-84
2024/04/11 03:25:59;;;;;;;15.75;5.03;;;2.10;99.90;;;;;;5554190;25;20004;-85
2024/04/11 03:28:48;;;;;;;9.32;5.05;;;2.10;99.90;;;;;;5553172;25;20076;-85
2024/04/11 03:31:36;;;;;;;15.95;4.97;;;2.30;99.90;;;;;;5554049;25;20004;-85
2024/04/11 03:34:28;;;;;;;9.75;5.68;;;2.30;99.90;;;;;;5555006;25;20005;-86
2024/04/11 03:37:16;;;;;;;14.40;5.05;;;2.30;99.90;;;;;;5553746;25;20017;-85
2024/04/11 03:40:09;;;;;;;14.70;5.13;;;2.30;99.90;;;;;;5553954;25;20546;-85
2024/04/11 03:42:56;;;;;;;15.82;5.25;;;2.20;99.90;;;;;;5526577;25;20015;-85
2024/04/11 03:45:45;;;;;;;12.93;5.28;;;2.10;99.90;;;;;;5528066;25;20207;-84
2024/04/11 03:48:36;;;;;;;12.23;5.70;;;2.00;99.90;;;;;;5569228;25;20199;-86
2024/04/11 03:51:29;;;;;;;13.10;5.93;;;2.00;99.90;;;;;;5517435;25;20016;-85
2024/04/11 03:54:22;;;;;;;13.02;5.28;;;2.00;99.90;;;;;;5544119;25;20000;-77
2024/04/11 03:57:09;;;;;;;7.47;4.00;;;1.90;99.90;;;;;;5549313;25;20005;-84
2024/04/11 03:59:58;;;;;;;15.23;4.93;;;1.80;99.90;;;;;;5564760;25;20005;-85
2024/04/11 04:02:45;;;;;;;16.60;5.90;;;1.80;99.90;;;;;;5566969;25;20001;-81
2024/04/11 04:05:33;;;;;;;13.88;5.72;;;1.70;99.90;;;;;;5574891;25;20017;-79
2024/04/11 04:08:23;;;;;;;11.40;5.45;;;1.80;1.00;;;;;;5510409;25;20012;-85
2024/04/11 04:11:22;;;;;;;12.40;6.25;;;1.70;1.00;;;;;;5534313;25;20052;-85
2024/04/11 04:14:13;;;;;;;9.80;5.23;;;1.70;1.00;;;;;;5560277;25;20005;-85
2024/04/11 04:17:03;;;;;;;13.30;5.73;;;1.70;1.00;;;;;;5554249;25;20465;-84
2024/04/11 04:19:51;;;;;;;13.85;5.70;;;1.70;1.00;;;;;;5525164;25;20040;-86
2024/04/11 04:22:39;;;;;;;15.73;7.03;;;1.70;1.00;;;;;;5553026;25;20076;-85
2024/04/11 04:25:27;;;;;;;16.20;6.55;;;1.70;32.20;;;;;;5552607;25;20005;-86
2024/04/11 04:28:18;;;;;;;17.52;7.18;;;1.60;75.60;;;;;;5524460;25;20004;-86
2024/04/11 04:31:16;;;;;;;12.25;7.07;;;1.70;99.90;;;;;;5523604;25;20030;-84
2024/04/11 04:34:04;;;;;;;18.52;7.68;;;2.00;99.90;;;;;;5554347;25;20360;-81
2024/04/11 04:36:53;;;;;;;15.27;7.53;;;2.00;99.90;;;;;;5540416;25;20004;-84
2024/04/11 04:39:41;;;;;;;13.32;7.25;;;2.00;99.90;;;;;;5551698;25;20008;-86
2024/04/11 04:42:29;;;;;;;26.58;7.75;;;1.90;99.90;;;;;;5531500;25;20015;-79
2024/04/11 04:45:19;;;;;;;20.55;8.70;;;1.80;99.90;;;;;;5567826;25;20009;-86
2024/04/11 04:48:11;;;;;;;24.10;8.15;;;1.80;99.90;;;;;;5559623;25;20462;-84
2024/04/11 04:51:04;;;;;;;15.32;7.07;;;1.90;99.90;;;;;;5526935;25;20004;-85
2024/04/11 04:53:52;;;;;;;19.38;7.63;;;1.90;99.90;;;;;;5542472;25;20016;-84
2024/04/11 04:56:43;;;;;;;16.88;7.32;;;1.90;99.90;;;;;;5549965;25;20013;-83
2024/04/11 04:59:31;;;;;;;12.82;7.03;;;1.90;99.90;;;;;;5526393;25;20001;-83
2024/04/11 05:02:24;;;;;;;15.68;7.10;;;1.70;99.90;;;;;;5555622;25;20004;-85
2024/04/11 05:05:17;;;;;;;15.32;6.88;;;1.70;99.90;;;;;;5566578;25;20052;-79
2024/04/11 05:08:07;;;;;;;13.48;6.45;;;1.70;99.90;;;;;;5570841;25;20003;-78
2024/04/11 05:10:55;;;;;;;15.85;8.32;;;1.70;99.90;;;;;;5569274;25;20039;-81
2024/04/11 05:13:45;;;;;;;19.20;6.95;;;1.90;99.90;;;;;;5550483;25;20004;-84
2024/04/11 05:16:36;;;;;;;16.10;7.18;;;2.00;99.90;;;;;;5554418;25;20143;-84
2024/04/11 05:19:27;;;;;;;19.67;7.88;;;2.00;99.90;;;;;;5524735;25;20039;-84
2024/04/11 05:22:17;;;;;;;21.60;7.30;;;2.10;99.90;;;;;;5551945;25;20016;-85
2024/04/11 05:25:06;;;;;;;20.25;6.43;;;2.20;99.90;;;;;;5533015;25;20108;-77
2024/04/11 05:27:53;;;;;;;12.80;6.28;;;2.30;99.90;;;;;;5522739;25;20014;-84
2024/04/11 05:30:43;;;;;;;10.48;5.25;;;2.40;99.90;;;;;;5563981;25;20470;-78
2024/04/11 05:33:39;;;;;;;14.27;5.97;;;2.40;99.90;;;;;;5564683;25;20476;-85
2024/04/11 05:36:32;;;;;;;10.95;5.80;;;2.60;99.90;;;;;;5539444;25;20442;-77
2024/04/11 05:39:20;;;;;;;14.63;5.95;;;2.80;99.90;;;;;;5564223;25;20015;-84
2024/04/11 05:42:09;;;;;;;17.17;5.85;;;3.10;99.90;;;;;;5530717;25;20009;-83
2024/04/11 05:44:58;;;;;;;10.95;6.10;;;3.30;99.90;;;;;;5550533;25;20062;-82
2024/04/11 05:47:46;;;;;;;18.08;5.78;;;3.40;99.90;;;;;;5552948;25;20005;-85
2024/04/11 05:50:38;;;;;;;13.60;5.75;;;3.50;1.00;;;;;;5525616;25;20457;-83
2024/04/11 05:53:27;;;;;;;12.25;5.97;;;3.60;1.00;;;;;;5523764;25;20004;-85
2024/04/11 05:56:18;;;;;;;20.58;5.32;;;3.70;1.00;;;;;;5524468;25;20053;-85
2024/04/11 05:59:08;;;;;;;11.85;5.07;;;3.90;99.90;;;;;;5551536;25;20033;-84
2024/04/11 06:01:58;;;;;;;9.93;5.13;;;4.20;99.90;;;;;;5552827;25;20356;-83
2024/04/11 06:04:50;;;;;;;10.90;4.43;;;4.60;99.90;;;;;;5553879;25;20012;-84
2024/04/11 06:07:39;;;;;;;10.80;6.07;;;4.80;99.90;;;;;;5526245;25;20465;-84
2024/04/11 06:10:29;;;;;;;21.70;5.15;;;5.00;93.80;;;;;;5551275;25;20015;-85
2024/04/11 06:13:18;;;;;;;11.75;4.90;;;5.20;1.00;;;;;;5549270;25;20345;-83
2024/04/11 06:16:06;;;;;;;13.20;5.18;;;5.30;1.00;;;;;;5547267;25;20005;-83
2024/04/11 06:18:56;;;;;;;14.75;5.63;;;5.40;99.90;;;;;;5563473;25;20012;-83
2024/04/11 06:21:47;;;;;;;14.65;4.50;;;5.50;99.90;;;;;;5520393;25;20013;-84
2024/04/11 06:24:35;;;;;;;15.70;5.57;;;5.60;99.90;;;;;;5539284;25;20019;-85
2024/04/11 06:27:23;;;;;;;16.50;5.05;;;5.70;99.90;;;;;;5561779;25;20483;-83
2024/04/11 06:30:14;;;;;;;12.18;4.32;;;5.70;99.90;;;;;;5552326;25;20005;-84
2024/04/11 06:33:04;;;;;;;190.43;14.35;;;6.00;99.90;;;;;;5563439;25;20484;-84
2024/04/11 06:35:54;;;;;;;18.40;4.40;;;6.50;52.90;;;;;;5524850;25;20504;-84
2024/04/11 06:38:43;;;;;;;14.50;4.32;;;6.90;1.00;;;;;;5536014;25;20053;-82
2024/04/11 06:41:32;;;;;;;9.18;3.97;;;7.30;1.00;;;;;;5523047;25;20076;-84
2024/04/11 06:44:21;;;;;;;11.40;3.95;;;7.60;1.00;;;;;;5550298;25;20377;-83
2024/04/11 06:47:09;;;;;;;8.35;3.80;;;7.90;99.90;;;;;;5522070;25;20000;-83
2024/04/11 06:50:06;;;;;;;15.27;3.97;;;8.20;99.90;;;;;;5550049;25;20016;-82
2024/04/11 06:52:55;;;;;;;11.73;4.05;;;8.60;99.90;;;;;;5548401;25;20071;-83
2024/04/11 06:55:46;;;;;;;14.65;4.35;;;8.80;99.90;;;;;;5550556;25;20018;-82
2024/04/11 06:58:36;;;;;;;6.85;3.42;;;8.90;99.90;;;;;;5553359;25;20005;-84
2024/04/11 07:01:26;;;;;;;9.70;3.25;;;9.70;99.90;;;;;;5553144;25;20008;-83
2024/04/11 07:04:15;;;;;;;15.05;3.70;;;10.30;99.90;;;;;;5525454;25;20487;-82
2024/04/11 07:07:08;;;;;;;11.68;5.15;;;11.10;99.90;;;;;;5559443;25;20016;-77
2024/04/11 07:09:55;;;;;;;11.10;2.85;;;12.10;99.90;;;;;;5550053;25;20132;-83
2024/04/11 07:12:46;;;;;;;8.20;3.08;;;12.80;99.90;;;;;;5563849;25;20004;-78
2024/04/11 07:15:42;;;;;;;6.45;2.90;;;13.10;44.20;;;;;;5573046;25;20473;-81
2024/04/11 07:18:44;;;;;;;4.97;2.55;;;13.20;15.10;;;;;;5555564;25;19997;-78
2024/04/11 07:21:34;;;;;;;12.18;3.20;;;13.80;4.60;;;;;;5561278;25;20001;-84
2024/04/11 07:24:23;;;;;;;10.45;3.00;;;14.20;1.00;;;;;;5540909;25;20065;-78
2024/04/11 07:27:17;;;;;;;5.78;2.70;;;14.40;1.00;;;;;;5560121;25;20045;-82
2024/04/11 07:30:11;;;;;;;6.80;2.67;;;14.90;1.00;;;;;;5542589;25;20004;-83
2024/04/11 07:33:02;;;;;;;9.57;2.85;;;15.20;1.00;;;;;;5555591;25;19996;-83
2024/04/11 07:35:49;;;;;;;9.18;2.60;;;15.40;1.00;;;;;;5574219;25;20012;-79
2024/04/11 07:38:37;;;;;;;8.82;2.45;;;15.40;1.00;;;;;;5550243;25;19992;-81
2024/04/11 07:41:44;;;;;;;8.38;2.53;;;15.40;1.00;;;;;;5548038;25;20001;-80
2024/04/11 07:44:35;;;;;;;6.75;2.63;;;16.10;1.00;;;;;;5571381;25;20005;-82
2024/04/11 07:47:29;;;;;;;6.80;2.40;;;17.00;1.00;;;;;;5572491;25;20001;-82
2024/04/11 07:50:37;;;;;;;6.40;2.33;;;17.50;1.00;;;;;;5569857;25;20001;-82
2024/04/11 07:53:27;;;;;;;6.53;3.03;;;17.60;1.00;;;;;;5571313;25;19996;-81
2024/04/11 07:56:23;;;;;;;5.97;2.85;;;16.80;1.00;;;;;;5568354;25;20128;-83
2024/04/11 07:59:11;;;;;;;9.27;2.80;;;15.50;1.00;;;;;;5570506;25;19993;-79
2024/04/11 08:02:00;;;;;;;9.13;3.03;;;15.50;1.00;;;;;;5560742;25;20012;-83
2024/04/11 08:04:48;;;;;;;6.07;2.58;;;15.70;1.00;;;;;;5551192;25;20009;-84
2024/04/11 08:07:40;;;;;;;9.57;2.78;;;15.60;1.00;;;;;;5545899;25;20009;-83
2024/04/11 08:10:29;;;;;;;9.23;2.65;;;15.20;1.00;;;;;;5524479;25;20004;-84
2024/04/11 08:13:19;;;;;;;6.60;2.40;;;14.80;1.00;;;;;;5549767;25;20005;-84
2024/04/11 08:16:09;;;;;;;7.57;2.70;;;15.60;1.00;;;;;;5550541;25;20001;-85
2024/04/11 08:19:02;;;;;;;8.02;2.78;;;16.10;1.00;;;;;;5565775;25;20348;-85
2024/04/11 08:21:50;;;;;;;7.03;2.17;;;16.40;1.00;;;;;;5552852;25;20005;-83
2024/04/11 08:24:37;;;;;;;8.88;2.60;;;17.00;1.00;;;;;;5529546;25;20016;-82
2024/04/11 08:27:25;;;;;;;5.63;2.50;;;17.20;1.00;;;;;;5564487;25;20009;-85
2024/04/11 08:30:12;;;;;;;8.30;2.58;;;17.20;1.00;;;;;;5533953;25;20012;-86
2024/04/11 08:32:59;;;;;;;6.28;2.17;;;17.50;1.00;;;;;;5553289;25;20024;-85
2024/04/11 08:35:52;;;;;;;7.10;2.00;;;18.20;1.00;;;;;;5528746;25;20001;-83
2024/04/11 08:38:42;;;;;;;7.35;1.98;;;18.40;1.00;;;;;;5560907;25;20016;-84
2024/04/11 08:41:31;;;;;;;4.10;1.60;;;18.20;1.00;;;;;;5534509;25;20009;-85
2024/04/11 08:44:19;;;;;;;7.95;2.05;;;17.30;1.00;;;;;;5555932;25;20120;-84
2024/04/11 08:47:10;;;;;;;4.72;1.70;;;17.30;1.00;;;;;;5551268;25;20005;-84
2024/04/11 08:49:58;;;;;;;6.68;2.33;;;17.10;1.00;;;;;;5497142;25;20016;-83
2024/04/11 08:52:46;;;;;;;5.65;1.75;;;17.40;1.00;;;;;;5554034;25;20004;-82
2024/04/11 08:55:35;;;;;;;6.93;1.90;;;17.90;1.00;;;;;;5552262;25;20015;-86
2024/04/11 08:58:24;;;;;;;6.65;2.30;;;18.00;1.00;;;;;;5531212;25;21053;-85
2024/04/11 09:01:16;;;;;;;7.22;2.70;;;18.40;1.00;;;;;;5558119;25;20016;-85
2024/04/11 09:04:04;;;;;;;6.07;2.17;;;18.30;1.00;;;;;;5551780;25;20538;-81
2024/04/11 09:06:54;;;;;;;7.72;2.03;;;18.70;1.00;;;;;;5528139;25;20032;-79
2024/04/11 09:09:44;;;;;;;8.25;2.72;;;18.70;1.00;;;;;;5561930;25;20016;-84
2024/04/11 09:12:33;;;;;;;4.72;2.05;;;18.40;1.00;;;;;;5540547;25;20068;-85
2024/04/11 09:15:21;;;;;;;8.88;2.45;;;17.80;1.00;;;;;;5543153;25;20057;-79
2024/04/11 09:18:24;;;;;;;5.35;2.10;;;18.10;1.00;;;;;;5563129;25;20019;-85
2024/04/11 09:21:14;;;;;;;7.93;2.38;;;18.20;1.00;;;;;;5566106;25;20000;-84
2024/04/11 09:24:13;;;;;;;8.02;2.35;;;19.20;1.00;;;;;;5555704;25;20088;-86
2024/04/11 09:27:05;;;;;;;3.90;1.85;;;18.80;1.00;;;;;;5550881;25;20036;-83
2024/04/11 09:29:53;;;;;;;10.73;2.60;;;18.40;1.00;;;;;;5550790;25;20005;-83
2024/04/11 09:32:44;;;;;;;6.85;1.95;;;18.00;1.00;;;;;;5558174;25;20019;-83
2024/04/11 09:35:36;;;;;;;6.13;1.95;;;18.40;1.00;;;;;;5522647;25;20012;-81
2024/04/11 09:38:29;;;;;;;7.22;2.00;;;19.10;1.00;;;;;;5523788;25;20020;-84
2024/04/11 09:41:17;;;;;;;;;;;19.50;1.00;;;;;;5553044;25;20005;-84
2024/04/11 09:44:09;;;;;;;4.45;1.75;;;19.90;1.00;;;;;;5552204;25;20679;-84
2024/04/11 09:47:00;;;;;;;6.80;1.50;;;20.00;1.00;;;;;;5550420;25;20019;-84
2024/04/11 09:50:04;;;;;;;10.60;1.77;;;20.30;1.00;;;;;;5550958;25;20004;-83
2024/04/11 09:52:59;;;;;;;4.88;1.65;;;21.30;1.00;;;;;;5548494;25;20465;-84
2024/04/11 09:55:46;;;;;;;5.82;1.27;;;21.30;1.00;;;;;;5550387;25;20007;-85
2024/04/11 09:58:38;;;;;;;5.00;1.60;;;21.70;1.00;;;;;;5550657;25;20011;-85
2024/04/11 10:01:32;;;;;;;7.40;1.65;;;21.80;1.00;;;;;;5548943;25;20011;-84
2024/04/11 10:04:25;;;;;;;2.38;1.20;;;22.10;1.00;;;;;;5552922;25;20044;-86
2024/04/11 10:07:25;;;;;;;5.00;1.20;;;22.10;1.00;;;;;;5552033;25;20005;-86
2024/04/11 10:10:27;;;;;;;5.07;1.13;;;22.50;1.00;;;;;;5550507;25;20475;-85
2024/04/11 10:13:20;;;;;;;5.50;1.42;;;22.70;1.00;;;;;;5550626;25;20939;-87
2024/04/11 10:16:21;;;;;;;3.40;1.33;;;23.40;1.00;;;;;;5551883;25;20040;-82
2024/04/11 10:19:21;;;;;;;6.05;1.38;;;24.20;1.00;;;;;;5550313;25;20016;-85
2024/04/11 10:22:24;;;;;;;3.53;1.50;;;24.80;1.00;;;;;;5546751;25;20000;-84
2024/04/11 10:25:19;;;;;;;2.60;1.30;;;24.90;1.00;;;;;;5559836;25;20044;-85
2024/04/11 10:28:18;;;;;;;6.72;1.30;;;24.10;1.00;;;;;;5560477;25;20001;-81
2024/04/11 10:31:11;;;;;;;4.38;1.50;;;24.00;1.00;;;;;;5566546;25;20011;-78
2024/04/11 10:33:59;;;;;;;4.35;1.17;;;23.70;1.00;;;;;;5564972;25;20025;-81
2024/04/11 10:36:57;;;;;;;4.53;1.40;;;23.90;1.00;;;;;;5569856;25;19993;-81
2024/04/11 10:39:57;;;;;;;5.00;1.45;;;23.70;1.00;;;;;;5564698;25;20016;-83
2024/04/11 10:45:59;;;;;;;3.33;0.80;;;23.80;1.00;;;;;;5537030;25;20342;-85
2024/04/11 10:48:49;;;;;;;2.70;1.08;;;23.50;1.00;;;;;;5564896;25;20005;-82
2024/04/11 10:51:41;;;;;;;4.00;1.15;;;23.40;1.00;;;;;;5539376;25;20567;-85
2024/04/11 10:54:31;;;;;;;4.30;2.20;;;23.40;1.00;;;;;;5565035;25;20313;-85
2024/04/11 10:57:19;;;;;;;5.63;1.73;;;23.20;1.00;;;;;;5536448;25;20001;-85
2024/04/11 11:00:22;;;;;;;3.08;1.33;;;23.00;1.00;;;;;;5548029;25;20005;-84
2024/04/11 11:03:14;;;;;;;4.38;1.67;;;24.10;1.00;;;;;;5550099;25;20015;-85
2024/04/11 11:06:14;;;;;;;5.43;1.20;;;23.60;1.00;;;;;;5562810;25;20505;-82
2024/04/11 11:09:10;;;;;;;4.65;1.30;;;23.90;1.00;;;;;;5553609;25;20015;-84
2024/04/11 11:12:05;;;;;;;4.40;1.50;;;23.90;1.00;;;;;;5547373;25;20041;-85
2024/04/11 11:14:53;;;;;;;5.85;1.58;;;24.00;1.00;;;;;;5538942;25;20001;-85
2024/04/11 11:17:45;;;;;;;5.50;1.50;;;23.40;1.00;;;;;;5559727;25;20001;-83
2024/04/11 11:20:35;;;;;;;6.22;1.73;;;23.30;1.00;;;;;;5567846;25;20004;-81
2024/04/11 11:23:26;;;;;;;3.58;1.30;;;24.20;1.00;;;;;;5570142;25;20020;-80
2024/04/11 11:26:20;;;;;;;5.28;1.05;;;25.10;1.00;;;;;;5569489;25;20017;-84
2024/04/11 11:29:11;;;;;;;6.88;1.77;;;26.20;1.00;;;;;;5542709;25;20008;-82
2024/04/11 11:32:02;;;;;;;5.75;1.20;;;25.70;1.00;;;;;;5543920;25;20037;-82
2024/04/11 11:34:51;;;;;;;4.97;1.55;;;24.30;1.00;;;;;;5569261;25;20001;-83
2024/04/11 11:37:40;;;;;;;5.75;1.65;;;23.50;1.00;;;;;;5568608;25;19996;-81
2024/04/11 11:40:46;;;;;;;3.22;1.38;;;23.40;1.00;;;;;;5533772;25;20770;-84
2024/04/11 11:43:43;;;;;;;6.65;1.48;;;23.10;1.00;;;;;;5551905;25;20015;-84
2024/04/11 11:46:38;;;;;;;5.80;1.48;;;23.80;1.00;;;;;;5551633;25;20019;-86
2024/04/11 11:49:25;;;;;;;4.13;1.52;;;24.80;1.00;;;;;;5553266;25;20012;-84
2024/04/11 11:52:14;;;;;;;6.32;1.63;;;25.50;1.00;;;;;;5560230;25;20005;-86
2024/04/11 11:55:05;;;;;;;3.35;1.15;;;25.70;1.00;;;;;;5525972;25;20045;-84
2024/04/11 11:57:56;;;;;;;4.88;1.50;;;24.90;1.00;;;;;;5550078;25;20019;-86
2024/04/11 12:00:59;;;;;;;5.03;1.38;;;24.60;1.00;;;;;;5548917;25;20031;-84
2024/04/11 12:03:46;;;;;;;4.18;1.55;;;25.00;1.00;;;;;;5525263;25;20005;-83
2024/04/11 12:06:34;;;;;;;6.65;1.30;;;25.00;1.00;;;;;;5538983;25;20476;-77
2024/04/11 12:09:31;;;;;;;3.55;1.20;;;25.60;1.00;;;;;;5565659;25;20096;-86
2024/04/11 12:12:23;;;;;;;6.07;1.63;;;25.00;1.00;;;;;;5529498;25;20017;-85
2024/04/11 12:15:14;;;;;;;3.90;1.10;;;24.60;1.00;;;;;;5550127;25;20398;-79
2024/04/11 12:18:02;;;;;;;7.90;1.65;;;24.50;1.00;;;;;;5565710;25;20036;-86
2024/04/11 12:20:54;;;;;;;5.28;1.88;;;24.70;1.00;;;;;;5556936;25;20445;-84
2024/04/11 12:23:42;;;;;;;;;;;25.30;1.00;;;;;;5554427;25;20029;-85
2024/04/11 12:26:32;;;;;;;3.88;1.40;;;26.20;99.90;;;;;;5552930;25;20493;-84
2024/04/11 12:29:20;;;;;;;4.05;1.42;;;26.50;99.90;;;;;;5527667;25;20016;-84
2024/04/11 12:32:08;;;;;;;6.82;1.35;;;26.00;99.90;;;;;;5553827;25;20032;-84
2024/04/11 12:34:57;;;;;;;4.38;1.55;;;26.60;99.90;;;;;;5552665;25;20482;-82
2024/04/11 12:37:46;;;;;;;5.70;1.02;;;26.80;99.90;;;;;;5551520;25;20019;-81
2024/04/11 12:40:39;;;;;;;4.63;1.67;;;27.00;99.90;;;;;;5553081;25;20084;-84
2024/04/11 12:43:29;;;;;;;4.95;1.67;;;27.10;1.00;;;;;;5528407;25;20005;-82
2024/04/11 12:46:17;;;;;;;5.43;1.70;;;27.70;99.90;;;;;;5524598;25;20009;-82
2024/04/11 12:49:15;;;;;;;5.38;1.63;;;26.80;99.90;;;;;;5551924;25;20350;-85
2024/04/11 12:52:03;;;;;;;5.22;1.48;;;26.40;99.90;;;;;;5527040;25;20033;-82
2024/04/11 12:55:00;;;;;;;7.13;1.85;;;26.20;99.90;;;;;;5553087;25;20013;-83
2024/04/11 12:57:51;;;;;;;5.53;1.42;;;26.20;99.90;;;;;;5565027;25;20009;-79
2024/04/11 13:00:44;;;;;;;5.22;1.48;;;26.70;99.90;;;;;;5565535;25;20016;-85
2024/04/11 13:03:52;;;;;;;7.05;1.35;;;27.40;99.90;;;;;;5549547;25;20046;-78
2024/04/11 13:06:48;;;;;;;6.13;1.42;;;27.30;99.90;;;;;;5556808;25;20000;-83
2024/04/11 13:09:48;;;;;;;7.18;1.65;;;26.50;99.90;;;;;;5566745;25;20005;-82
2024/04/11 13:12:40;;;;;;;11.18;1.55;;;26.80;99.90;;;;;;5553298;25;20008;-84
2024/04/11 13:15:43;;;;;;;3.08;1.40;;;26.50;99.90;;;;;;5558815;25;20005;-85
2024/04/11 13:18:31;;;;;;;6.78;1.58;;;26.20;99.90;;;;;;5566522;25;20000;-83
2024/04/11 13:21:31;;;;;;;6.53;1.73;;;26.20;99.90;;;;;;5568515;25;20004;-84
2024/04/11 13:24:24;;;;;;;5.80;1.88;;;27.20;99.90;;;;;;5565893;25;20008;-82
2024/04/11 13:27:15;;;;;;;6.68;1.17;;;26.50;99.90;;;;;;5550841;25;20015;-84
2024/04/11 13:30:12;;;;;;;6.57;1.65;;;26.70;99.90;;;;;;5566480;25;20005;-84
2024/04/11 13:32:59;;;;;;;5.90;1.60;;;26.50;99.90;;;;;;5566223;25;20012;-82
2024/04/11 13:35:51;;;;;;;5.00;1.40;;;27.40;99.90;;;;;;5549430;25;20000;-83
2024/04/11 13:38:42;;;;;;;5.55;1.38;;;26.40;99.90;;;;;;5549423;25;20004;-84
2024/04/11 13:44:36;;;;;;;2.92;1.30;;;25.20;99.90;;;;;;5558940;25;19996;-83
2024/04/11 13:47:25;;;;;;;5.50;1.42;;;25.10;99.90;;;;;;5561423;25;20012;-83
2024/04/11 13:53:21;;;;;;;3.78;1.38;;;24.70;99.90;;;;;;5570361;25;20007;-81
2024/04/11 13:56:13;;;;;;;11.02;1.67;;;25.70;99.90;;;;;;5565529;25;20008;-82
2024/04/11 13:59:07;;;;;;;5.60;1.88;;;25.90;99.90;;;;;;5562967;25;20053;-84
2024/04/11 14:01:59;;;;;;;4.03;1.42;;;26.70;99.90;;;;;;5535287;25;20001;-83
2024/04/11 14:04:47;;;;;;;5.18;1.23;;;27.50;99.90;;;;;;5560207;25;20000;-83
2024/04/11 14:07:35;;;;;;;5.10;1.50;;;28.20;99.90;;;;;;5561441;25;20011;-83
2024/04/11 14:10:23;;;;;;;4.18;1.30;;;28.50;99.90;;;;;;5564176;25;20300;-83
2024/04/11 14:13:14;;;;;;;4.03;1.25;;;28.50;99.90;;;;;;5563761;25;20031;-81
2024/04/11 14:16:08;;;;;;;5.53;1.58;;;28.40;99.90;;;;;;5558042;25;20019;-81
2024/04/11 14:18:59;;;;;;;5.82;1.45;;;27.30;99.90;;;;;;5575086;25;20001;-85
2024/04/11 14:21:53;;;;;;;5.67;1.40;;;27.60;99.90;;;;;;5529255;25;20017;-83
2024/04/11 14:24:58;;;;;;;4.82;1.20;;;28.50;99.90;;;;;;5556290;25;20360;-78
2024/04/11 14:27:50;;;;;;;4.07;1.35;;;28.20;99.90;;;;;;5543648;25;20004;-79
2024/04/11 14:30:38;;;;;;;5.38;1.77;;;28.00;99.90;;;;;;5542943;25;20011;-83
2024/04/11 14:36:36;;;;;;;5.38;1.65;;;23.70;99.90;;;;;;5567044;25;20009;-80
2024/04/11 14:39:34;;;;;;;3.97;1.50;;;21.60;99.90;;;;;;5566920;25;20005;-84
2024/04/11 14:42:22;;;;;;;6.05;1.15;;;20.80;99.90;;;;;;5535429;25;20012;-84
2024/04/11 14:45:10;;;;;;;7.03;2.33;;;20.50;99.90;;;;;;5557849;25;20072;-80
2024/04/11 14:47:59;;;;;;;10.23;2.42;;;20.50;99.90;;;;;;5570610;25;20004;-83
2024/04/11 14:50:58;;;;;;;6.82;1.55;;;20.30;99.90;;;;;;5533513;25;20001;-83
2024/04/11 14:53:47;;;;;;;6.93;1.40;;;20.20;99.90;;;;;;5559691;25;20004;-84
2024/04/11 14:56:40;;;;;;;4.93;1.50;;;20.30;99.90;;;;;;5532909;25;20016;-84
2024/04/11 14:59:35;;;;;;;3.13;1.40;;;20.20;99.90;;;;;;5556949;25;20034;-84
2024/04/11 15:02:22;;;;;;;7.22;1.77;;;20.10;99.90;;;;;;5558843;25;20005;-84
2024/04/11 15:05:17;;;;;;;3.05;1.23;;;20.30;99.90;;;;;;5551071;25;20361;-84
2024/04/11 15:08:10;;;;;;;6.97;1.40;;;20.40;99.90;;;;;;5550492;25;20004;-85
2024/04/11 15:11:00;;;;;;;6.65;1.77;;;20.30;99.90;;;;;;5549676;25;20000;-85